Time;durP1;ratioP1;P1;durP2;ratioP2;P2;SDS_P1;SDS_P2;PMS_P1;PMS_P2;Temp;Humidity;BMP_temperature;BMP_pressure;BME280_temperature;BME280_humidity;BME280_pressure;Samples;Min_cycle;Max_cycle;Signal;HPM_P1;HPM_P2
2022/07/07 00:01:17;;;;;;;7.37;5.03;;;;;;;27.57;43.12;101123.48;1713947;83;21010;-48
2022/07/07 00:03:44;;;;;;;7.50;5.00;;;;;;;27.56;43.24;101119.10;1710259;83;21013;-46
2022/07/07 00:06:12;;;;;;;5.90;4.75;;;;;;;27.52;43.58;101120.34;1711861;83;21025;-47
2022/07/07 00:08:39;;;;;;;8.63;4.35;;;;;;;27.48;44.03;101118.92;1714413;83;21010;-48
2022/07/07 00:11:06;;;;;;;5.05;4.50;;;;;;;27.44;45.30;101113.00;1699166;83;21075;-47
2022/07/07 00:13:34;;;;;;;6.20;4.85;;;;;;;27.43;47.74;101111.30;1712145;83;21037;-49
2022/07/07 00:16:01;;;;;;;6.53;4.70;;;;;;;27.45;49.05;101115.20;1712958;83;21006;-48
2022/07/07 00:18:28;;;;;;;7.37;4.58;;;;;;;27.49;49.81;101109.94;1712876;83;21471;-48
2022/07/07 00:20:55;;;;;;;4.92;4.42;;;;;;;27.52;50.18;101105.16;1710613;83;21541;-54
2022/07/07 00:23:21;;;;;;;6.53;4.80;;;;;;;27.57;50.44;101112.80;1711568;83;21070;-48
2022/07/07 00:25:48;;;;;;;10.88;4.90;;;;;;;27.59;50.77;101110.34;1710927;83;21005;-49
2022/07/07 00:28:15;;;;;;;7.95;4.97;;;;;;;27.62;51.26;101118.09;1711127;83;21562;-49
2022/07/07 00:30:42;;;;;;;8.20;4.85;;;;;;;27.64;51.03;101111.26;1712782;83;21048;-48
2022/07/07 00:33:09;;;;;;;5.30;4.75;;;;;;;27.65;51.12;101116.50;1714028;83;21014;-48
2022/07/07 00:35:35;;;;;;;5.00;4.28;;;;;;;27.68;51.39;101115.36;1713144;83;21060;-48
2022/07/07 00:38:03;;;;;;;4.80;4.40;;;;;;;27.70;51.60;101118.77;1711348;83;21581;-49
2022/07/07 00:40:30;;;;;;;5.50;4.60;;;;;;;27.69;51.51;101121.93;1712400;83;21576;-49
2022/07/07 00:42:57;;;;;;;7.80;4.60;;;;;;;27.69;51.57;101117.06;1714161;83;21466;-48
2022/07/07 00:45:25;;;;;;;8.50;4.55;;;;;;;27.69;51.70;101110.38;1701087;83;21041;-49
2022/07/07 00:47:52;;;;;;;7.92;4.58;;;;;;;27.67;51.60;101113.68;1714329;83;21073;-48
2022/07/07 00:50:19;;;;;;;5.70;4.80;;;;;;;27.67;51.73;101115.02;1714122;83;21062;-48
2022/07/07 00:52:47;;;;;;;5.00;4.58;;;;;;;27.64;51.66;101113.94;1712058;83;21077;-50
2022/07/07 00:55:14;;;;;;;9.00;4.60;;;;;;;27.65;52.02;101119.65;1707599;83;21601;-47
2022/07/07 00:57:41;;;;;;;4.95;4.25;;;;;;;27.65;51.87;101116.98;1743302;82;21027;-48
2022/07/07 01:00:11;;;;;;;5.20;4.70;;;;;;;27.64;51.80;101116.61;1744655;81;21024;-50
2022/07/07 01:02:38;;;;;;;;;;;;;;;27.62;51.93;101121.23;1747130;81;20999;-49
2022/07/07 01:05:07;;;;;;;5.33;4.83;;;;;;;27.61;52.32;101122.23;1735871;81;20440;-50
2022/07/07 01:07:34;;;;;;;7.08;5.47;;;;;;;27.56;52.51;101127.97;1741215;81;21490;-49
2022/07/07 01:10:03;;;;;;;5.65;4.53;;;;;;;27.55;52.54;101133.46;1701821;83;21499;-48
2022/07/07 01:12:36;;;;;;;6.42;4.60;;;;;;;27.52;52.70;101126.55;1737801;81;21002;-49
2022/07/07 01:15:04;;;;;;;5.95;4.92;;;;;;;27.52;52.92;101125.69;1662584;86;21027;-49
2022/07/07 01:17:31;;;;;;;5.30;4.87;;;;;;;27.51;53.01;101132.03;1619921;88;21062;-50
2022/07/07 01:19:58;;;;;;;5.83;4.35;;;;;;;27.50;52.90;101126.31;1663531;86;21530;-49
2022/07/07 01:22:31;;;;;;;6.92;5.20;;;;;;;27.49;53.18;101132.66;1618233;87;21070;-48
2022/07/07 01:24:58;;;;;;;6.00;4.62;;;;;;;27.48;53.39;101132.28;1660733;86;20979;-49
2022/07/07 01:27:25;;;;;;;5.60;5.05;;;;;;;27.45;53.32;101129.89;1616974;88;21063;-47
2022/07/07 01:29:54;;;;;;;5.08;4.45;;;;;;;27.43;53.44;101135.34;1660902;86;21131;-48
2022/07/07 01:32:22;;;;;;;5.37;4.87;;;;;;;27.41;53.41;101135.97;1617093;88;21127;-48
2022/07/07 01:34:49;;;;;;;9.15;4.60;;;;;;;27.39;53.40;101133.92;1660704;86;21054;-49
2022/07/07 01:37:16;;;;;;;5.30;4.80;;;;;;;27.36;53.63;101127.03;1619212;88;21079;-48
2022/07/07 01:39:44;;;;;;;6.35;4.70;;;;;;;27.33;53.74;101135.27;1663418;86;21526;-48
2022/07/07 01:42:12;;;;;;;7.67;4.83;;;;;;;27.34;53.85;101131.66;1618730;88;21066;-47
2022/07/07 01:44:41;;;;;;;4.95;4.20;;;;;;;27.33;53.89;101139.27;1660941;86;21058;-48
2022/07/07 01:47:09;;;;;;;5.40;4.70;;;;;;;27.32;53.97;101138.94;1621756;88;21558;-50
2022/07/07 01:49:36;;;;;;;5.65;5.08;;;;;;;27.30;54.11;101140.89;1659154;86;21035;-48
2022/07/07 01:52:05;;;;;;;5.67;5.05;;;;;;;27.31;54.04;101130.55;1620510;88;21515;-48
2022/07/07 01:54:35;;;;;;;8.80;4.55;;;;;;;27.31;54.22;101139.04;1663128;86;21043;-48
2022/07/07 01:57:04;;;;;;;5.95;4.97;;;;;;;27.27;54.39;101143.81;1618013;88;21043;-49
2022/07/07 01:59:32;;;;;;;6.12;5.10;;;;;;;27.26;54.35;101143.95;1660446;86;21059;-50
2022/07/07 02:01:58;;;;;;;5.35;4.72;;;;;;;27.25;54.47;101140.42;1617022;88;21519;-48
2022/07/07 02:04:26;;;;;;;6.28;5.17;;;;;;;27.23;54.31;101145.05;1657235;86;21062;-48
2022/07/07 02:06:52;;;;;;;5.42;4.92;;;;;;;27.23;54.54;101147.72;1619568;88;21143;-50
2022/07/07 02:09:21;;;;;;;6.10;5.50;;;;;;;27.24;54.44;101148.06;1661635;86;21067;-48
2022/07/07 02:11:48;;;;;;;6.90;6.12;;;;;;;27.23;54.66;101151.73;1641299;85;21043;-48
2022/07/07 02:14:15;;;;;;;7.00;5.35;;;;;;;27.23;54.81;101154.41;1694871;84;21027;-49
2022/07/07 02:16:44;;;;;;;7.08;6.42;;;;;;;27.22;54.94;101154.03;1701732;82;21575;-49
2022/07/07 02:19:10;;;;;;;6.10;5.40;;;;;;;27.19;54.36;101154.30;1703315;82;21027;-47
2022/07/07 02:21:37;;;;;;;5.80;5.30;;;;;;;27.18;54.59;101155.27;1703362;82;21010;-51
2022/07/07 02:24:05;;;;;;;6.60;5.97;;;;;;;27.17;54.55;101150.91;1704078;82;21046;-49
2022/07/07 02:26:33;;;;;;;6.10;5.50;;;;;;;27.14;54.27;101151.16;1705917;82;21530;-48
2022/07/07 02:29:02;;;;;;;8.23;5.75;;;;;;;27.14;54.41;101155.68;1707051;82;21039;-52
2022/07/07 02:31:30;;;;;;;8.10;6.20;;;;;;;27.11;54.47;101162.13;1706090;82;21035;-49
2022/07/07 02:33:57;;;;;;;6.05;5.45;;;;;;;27.09;54.46;101161.41;1710245;83;21032;-51
2022/07/07 02:36:24;;;;;;;7.60;5.58;;;;;;;27.09;54.40;101164.08;1705020;82;21050;-49
2022/07/07 02:38:51;;;;;;;6.55;5.95;;;;;;;27.08;54.15;101167.70;1705693;83;21046;-48
2022/07/07 02:41:19;;;;;;;8.20;6.10;;;;;;;27.06;54.28;101164.31;1706182;82;21511;-48
2022/07/07 02:43:46;;;;;;;6.60;6.00;;;;;;;27.06;54.42;101166.98;1706272;82;21070;-48
2022/07/07 02:46:13;;;;;;;6.65;5.97;;;;;;;27.07;54.58;101168.70;1703693;82;21031;-49
2022/07/07 02:48:40;;;;;;;6.40;5.75;;;;;;;27.07;54.33;101172.70;1703475;82;21046;-49
2022/07/07 02:51:08;;;;;;;7.05;6.37;;;;;;;27.07;54.42;101179.38;1703535;82;21061;-51
2022/07/07 02:53:36;;;;;;;6.75;6.10;;;;;;;27.02;54.35;101175.38;1703539;82;21063;-49
2022/07/07 02:56:04;;;;;;;7.67;6.92;;;;;;;27.01;54.60;101178.56;1703551;82;21074;-48
2022/07/07 02:58:30;;;;;;;7.08;6.20;;;;;;;26.99;54.33;101175.17;1712275;82;21034;-48
2022/07/07 03:00:57;;;;;;;7.47;6.72;;;;;;;26.99;54.41;101171.16;1706633;82;21535;-49
2022/07/07 03:03:24;;;;;;;7.03;6.42;;;;;;;26.99;54.39;101176.51;1702230;83;21511;-48
2022/07/07 03:05:51;;;;;;;7.20;6.50;;;;;;;26.99;54.63;101168.50;1706579;82;21071;-52
2022/07/07 03:08:18;;;;;;;6.65;6.00;;;;;;;27.02;54.60;101171.38;1704692;82;21523;-48
2022/07/07 03:10:47;;;;;;;6.90;6.30;;;;;;;27.03;54.64;101173.94;1703563;82;21042;-48
2022/07/07 03:13:14;;;;;;;7.30;6.58;;;;;;;27.04;54.53;101168.94;1693112;83;21030;-49
2022/07/07 03:15:41;;;;;;;8.15;6.62;;;;;;;27.04;54.59;101174.28;1706316;82;21570;-48
2022/07/07 03:18:08;;;;;;;7.10;6.45;;;;;;;27.03;54.71;101165.92;1706304;82;21082;-49
2022/07/07 03:20:35;;;;;;;7.42;6.72;;;;;;;27.02;54.71;101170.89;1703604;82;21042;-47
2022/07/07 03:23:02;;;;;;;6.60;6.03;;;;;;;27.01;54.74;101167.88;1703000;82;21502;-47
2022/07/07 03:25:29;;;;;;;9.00;7.05;;;;;;;27.02;54.79;101169.55;1703754;82;21063;-47
2022/07/07 03:27:56;;;;;;;7.45;6.62;;;;;;;27.00;54.91;101174.18;1703511;82;20996;-48
2022/07/07 03:30:22;;;;;;;7.12;6.53;;;;;;;26.99;54.85;101171.16;1703839;82;21086;-49
2022/07/07 03:32:49;;;;;;;7.22;6.62;;;;;;;26.97;54.84;101167.78;1700125;82;21511;-49
2022/07/07 03:35:16;;;;;;;7.97;7.00;;;;;;;26.96;54.84;101176.75;1706327;82;21063;-51
2022/07/07 03:37:43;;;;;;;7.60;6.90;;;;;;;26.93;54.95;101182.36;1704476;82;21070;-49
2022/07/07 03:40:12;;;;;;;7.47;6.78;;;;;;;26.91;54.89;101178.97;1704242;83;21022;-51
2022/07/07 03:42:40;;;;;;;7.95;6.45;;;;;;;26.91;54.98;101183.45;1704257;82;20987;-47
2022/07/07 03:45:08;;;;;;;7.60;6.80;;;;;;;26.95;55.11;101183.08;1703687;82;21555;-49
2022/07/07 03:47:36;;;;;;;6.90;6.17;;;;;;;27.02;54.94;101189.59;1703182;82;21538;-49
2022/07/07 03:50:05;;;;;;;6.55;5.95;;;;;;;27.15;54.84;101188.08;1703670;82;21039;-49
2022/07/07 03:52:31;;;;;;;6.90;6.22;;;;;;;27.34;54.31;101187.78;1703289;82;21036;-48
2022/07/07 03:54:58;;;;;;;7.45;6.47;;;;;;;27.59;53.93;101191.89;1702841;82;21043;-49
2022/07/07 03:57:25;;;;;;;7.05;6.15;;;;;;;27.89;53.19;101191.05;1700762;82;21039;-47
2022/07/07 03:59:52;;;;;;;6.95;6.35;;;;;;;28.15;52.54;101195.02;1699861;82;21090;-49
2022/07/07 04:02:19;;;;;;;6.97;6.37;;;;;;;28.41;51.94;101186.85;1698142;82;21059;-47
2022/07/07 04:04:46;;;;;;;8.18;7.37;;;;;;;28.66;51.04;101186.37;1699940;82;21567;-51
2022/07/07 04:07:13;;;;;;;7.97;6.95;;;;;;;28.74;50.53;101185.19;1700541;84;21527;-49
2022/07/07 04:09:40;;;;;;;7.65;6.95;;;;;;;28.72;50.42;101190.33;1700640;82;21058;-48
2022/07/07 04:12:08;;;;;;;8.70;7.58;;;;;;;28.65;50.40;101188.69;1691648;82;21042;-49
2022/07/07 04:14:35;;;;;;;11.03;7.55;;;;;;;28.54;50.94;101196.80;1698487;82;21019;-49
2022/07/07 04:17:02;;;;;;;8.53;7.70;;;;;;;28.41;51.23;101192.20;1694818;83;21015;-48
2022/07/07 04:19:29;;;;;;;8.03;7.22;;;;;;;28.28;51.20;101198.28;1698424;82;21050;-49
2022/07/07 04:21:57;;;;;;;8.85;8.05;;;;;;;28.18;51.31;101196.06;1697785;82;21039;-48
2022/07/07 04:24:24;;;;;;;10.15;7.42;;;;;;;28.10;51.50;101195.90;1697686;82;21077;-49
2022/07/07 04:26:51;;;;;;;8.88;8.08;;;;;;;28.03;51.99;101194.73;1697301;82;21083;-50
2022/07/07 04:29:17;;;;;;;8.43;7.65;;;;;;;27.96;51.93;101194.92;1698571;82;21066;-48
2022/07/07 04:31:44;;;;;;;8.58;7.75;;;;;;;27.89;51.83;101196.39;1694313;82;21007;-47
2022/07/07 04:34:12;;;;;;;8.40;7.70;;;;;;;27.86;52.16;101189.48;1700762;82;21559;-51
2022/07/07 04:36:40;;;;;;;8.38;7.67;;;;;;;27.81;52.00;101193.55;1699438;82;21035;-48
2022/07/07 04:39:08;;;;;;;8.28;7.47;;;;;;;27.76;52.14;101201.13;1697605;84;21058;-49
2022/07/07 04:41:36;;;;;;;8.70;7.80;;;;;;;27.72;52.39;101203.72;1688534;82;21031;-48
2022/07/07 04:44:05;;;;;;;10.40;7.47;;;;;;;27.69;52.14;101198.61;1700902;82;21023;-47
2022/07/07 04:46:33;;;;;;;7.60;7.00;;;;;;;27.66;52.23;101193.03;1696692;84;21054;-48
2022/07/07 04:49:00;;;;;;;8.63;7.75;;;;;;;27.64;52.17;101199.00;1701033;82;21043;-48
2022/07/07 04:51:27;;;;;;;8.38;7.60;;;;;;;27.63;52.30;101198.66;1700212;82;21081;-47
2022/07/07 04:53:54;;;;;;;9.50;7.78;;;;;;;27.62;52.17;101198.77;1697619;82;21047;-49
2022/07/07 04:56:21;;;;;;;8.70;7.90;;;;;;;27.60;52.50;101195.38;1698096;82;21070;-48
2022/07/07 04:58:48;;;;;;;7.62;6.97;;;;;;;27.59;52.63;101196.37;1697715;82;21034;-49
2022/07/07 05:01:14;;;;;;;7.78;7.08;;;;;;;27.60;52.47;101195.38;1698064;82;21066;-48
2022/07/07 05:03:41;;;;;;;8.60;7.72;;;;;;;27.65;52.62;101194.03;1699084;82;21551;-52
2022/07/07 05:06:08;;;;;;;8.80;7.78;;;;;;;27.69;52.62;101198.13;1701091;82;20992;-48
2022/07/07 05:08:35;;;;;;;8.15;7.15;;;;;;;27.75;52.47;101194.08;1700975;82;21573;-47
2022/07/07 05:11:02;;;;;;;8.33;6.70;;;;;;;27.81;52.27;101191.72;1703983;82;21083;-50
2022/07/07 05:13:29;;;;;;;8.60;7.80;;;;;;;27.90;51.95;101190.08;1699921;82;21055;-50
2022/07/07 05:15:57;;;;;;;7.78;7.15;;;;;;;27.98;52.06;101187.61;1700122;83;21070;-48
2022/07/07 05:18:23;;;;;;;8.23;7.53;;;;;;;28.07;51.81;101190.80;1701058;82;21054;-50
2022/07/07 05:20:50;;;;;;;7.55;6.85;;;;;;;28.20;51.64;101192.77;1700310;82;20984;-48
2022/07/07 05:23:17;;;;;;;7.75;6.95;;;;;;;28.34;51.05;101184.35;1698510;82;21575;-48
2022/07/07 05:25:44;;;;;;;7.85;7.12;;;;;;;28.50;50.69;101192.70;1697931;82;21039;-50
2022/07/07 05:28:11;;;;;;;7.75;7.15;;;;;;;28.66;50.52;101190.39;1697860;82;21070;-49
2022/07/07 05:30:38;;;;;;;7.22;6.60;;;;;;;28.82;49.98;101185.82;1698541;82;21086;-50
2022/07/07 05:33:07;;;;;;;7.50;6.72;;;;;;;28.92;49.47;101181.31;1698432;82;21042;-49
2022/07/07 05:35:37;;;;;;;7.30;6.60;;;;;;;28.95;49.44;101187.74;1700078;82;21559;-50
2022/07/07 05:38:04;;;;;;;7.30;6.70;;;;;;;28.95;49.29;101180.53;1707628;82;21031;-50
2022/07/07 05:40:31;;;;;;;7.67;6.97;;;;;;;28.93;49.39;101180.34;1696660;84;21043;-48
2022/07/07 05:42:58;;;;;;;7.65;6.50;;;;;;;28.93;49.38;101190.54;1701170;82;21023;-51
2022/07/07 05:45:25;;;;;;;7.53;6.83;;;;;;;28.89;49.43;101189.13;1688382;82;21527;-48
2022/07/07 05:47:52;;;;;;;6.45;5.95;;;;;;;28.89;49.53;101190.47;1700239;82;21066;-50
2022/07/07 05:50:19;;;;;;;6.65;6.05;;;;;;;28.86;49.70;101188.57;1698219;82;21067;-48
2022/07/07 05:52:46;;;;;;;6.90;6.35;;;;;;;28.84;49.92;101188.72;1703299;82;21559;-51
2022/07/07 05:55:13;;;;;;;6.67;6.08;;;;;;;28.80;49.70;101184.62;1702431;83;21058;-50
2022/07/07 05:57:40;;;;;;;6.55;5.97;;;;;;;28.77;49.92;101182.22;1706498;82;21102;-51
2022/07/07 06:00:08;;;;;;;7.35;6.10;;;;;;;28.74;50.05;101189.69;1705355;82;21121;-50
2022/07/07 06:02:41;;;;;;;6.95;6.10;;;;;;;28.72;49.86;101184.48;1704539;82;21539;-49
2022/07/07 06:05:09;;;;;;;6.80;6.20;;;;;;;28.73;50.09;101186.16;1703572;82;20995;-51
2022/07/07 06:07:37;;;;;;;6.70;6.08;;;;;;;28.76;50.28;101176.52;1703754;82;21074;-49
2022/07/07 06:10:06;;;;;;;6.97;6.25;;;;;;;28.86;49.91;101181.39;1696216;83;21039;-51
2022/07/07 06:12:34;;;;;;;6.90;6.30;;;;;;;28.97;49.66;101181.75;1702854;82;21421;-50
2022/07/07 06:15:00;;;;;;;6.85;6.25;;;;;;;29.04;49.22;101180.70;1693034;83;21038;-54
2022/07/07 06:17:27;;;;;;;7.10;6.50;;;;;;;29.08;49.14;101183.45;1706559;82;21463;-50
2022/07/07 06:19:55;;;;;;;7.25;6.65;;;;;;;29.14;49.47;101185.55;1709823;82;21078;-49
2022/07/07 06:22:22;;;;;;;6.83;6.20;;;;;;;29.12;48.96;101183.00;1703089;82;21023;-50
2022/07/07 06:24:51;;;;;;;7.75;6.95;;;;;;;29.11;49.01;101183.14;1703729;82;21515;-51
2022/07/07 06:27:18;;;;;;;7.35;6.65;;;;;;;29.14;49.19;101177.52;1703605;82;21034;-51
2022/07/07 06:29:46;;;;;;;6.78;6.17;;;;;;;29.23;49.28;101176.68;1703619;82;21047;-52
2022/07/07 06:32:16;;;;;;;9.30;6.33;;;;;;;29.36;48.96;101175.90;1705663;82;21050;-51
2022/07/07 06:34:43;;;;;;;6.80;6.28;;;;;;;29.50;48.53;101173.61;1706865;82;21515;-51
2022/07/07 06:37:11;;;;;;;6.85;6.25;;;;;;;29.65;48.36;101174.00;1706489;82;21081;-49
2022/07/07 06:39:38;;;;;;;7.15;6.47;;;;;;;29.77;47.95;101176.89;1710158;82;21047;-51
2022/07/07 06:42:05;;;;;;;7.20;5.65;;;;;;;29.87;47.76;101179.52;1705068;82;21062;-50
2022/07/07 06:44:33;;;;;;;6.65;6.10;;;;;;;29.91;47.71;101180.44;1704241;83;20999;-51
2022/07/07 06:47:00;;;;;;;6.40;5.90;;;;;;;29.92;47.45;101184.83;1709818;82;21155;-49
2022/07/07 06:49:27;;;;;;;6.75;6.10;;;;;;;29.89;47.36;101178.39;1703709;82;21042;-48
2022/07/07 06:51:55;;;;;;;6.67;6.08;;;;;;;29.86;47.21;101174.68;1703605;82;21018;-51
2022/07/07 06:54:21;;;;;;;7.12;6.47;;;;;;;29.80;47.29;101175.23;1703392;82;21553;-49
2022/07/07 06:56:49;;;;;;;6.45;5.90;;;;;;;29.75;47.38;101172.17;1699156;82;21086;-51
2022/07/07 06:59:16;;;;;;;6.20;5.70;;;;;;;29.73;47.34;101177.69;1694301;82;21087;-49
2022/07/07 07:01:44;;;;;;;6.15;5.55;;;;;;;29.73;47.39;101175.48;1700897;82;21074;-50
2022/07/07 07:04:13;;;;;;;6.75;5.50;;;;;;;29.74;47.43;101181.19;1699729;82;21003;-49
2022/07/07 07:06:42;;;;;;;8.03;5.92;;;;;;;29.74;47.73;101175.83;1698263;82;21011;-50
2022/07/07 07:09:11;;;;;;;5.37;5.00;;;;;;;29.76;47.80;101172.50;1703820;83;21527;-52
2022/07/07 07:11:38;;;;;;;6.70;5.10;;;;;;;29.80;47.39;101175.23;1700096;84;21026;-50
2022/07/07 07:14:05;;;;;;;5.80;5.28;;;;;;;29.76;47.21;101169.81;1700831;82;21515;-49
2022/07/07 07:16:32;;;;;;;5.70;5.10;;;;;;;29.72;47.38;101177.78;1700724;82;21043;-49
2022/07/07 07:18:59;;;;;;;5.30;4.90;;;;;;;29.69;47.94;101164.67;1698084;82;21027;-49
2022/07/07 07:21:26;;;;;;;5.55;5.03;;;;;;;29.65;48.12;101169.49;1698118;82;21022;-52
2022/07/07 07:23:52;;;;;;;5.33;4.80;;;;;;;29.62;47.79;101168.91;1697497;82;21043;-51
2022/07/07 07:26:20;;;;;;;4.78;4.28;;;;;;;29.60;47.97;101168.22;1698340;82;21079;-50
2022/07/07 07:28:47;;;;;;;7.58;4.85;;;;;;;29.58;48.09;101174.22;1698598;82;21003;-51
2022/07/07 07:31:16;;;;;;;4.80;4.05;;;;;;;29.60;48.41;101173.58;1694478;82;21027;-54
2022/07/07 07:33:43;;;;;;;4.97;4.47;;;;;;;29.64;48.25;101173.64;1701078;82;21106;-50
2022/07/07 07:36:10;;;;;;;4.58;4.20;;;;;;;29.67;48.07;101180.06;1699400;83;21048;-50
2022/07/07 07:38:39;;;;;;;4.65;4.25;;;;;;;29.70;48.20;101184.63;1698663;82;21055;-49
2022/07/07 07:41:07;;;;;;;6.00;4.15;;;;;;;29.77;48.25;101186.28;1700196;82;21043;-53
2022/07/07 07:43:35;;;;;;;4.53;4.22;;;;;;;29.83;47.62;101188.38;1696905;84;21042;-50
2022/07/07 07:46:02;;;;;;;5.55;4.20;;;;;;;29.86;47.69;101189.44;1702856;82;21070;-50
2022/07/07 07:48:29;;;;;;;4.78;4.30;;;;;;;29.87;47.50;101187.09;1699922;82;21011;-49
2022/07/07 07:50:56;;;;;;;5.50;4.42;;;;;;;29.88;47.47;101187.45;1697951;82;21556;-50
2022/07/07 07:53:23;;;;;;;4.65;4.22;;;;;;;29.87;47.38;101188.92;1697533;82;21023;-51
2022/07/07 07:55:51;;;;;;;4.22;3.85;;;;;;;29.83;47.35;101184.35;1698371;83;21054;-49
2022/07/07 07:58:17;;;;;;;4.70;3.90;;;;;;;29.80;47.53;101183.28;1697771;82;21109;-52
2022/07/07 08:00:44;;;;;;;4.50;4.10;;;;;;;29.81;47.72;101189.50;1699090;82;21042;-52
2022/07/07 08:03:10;;;;;;;4.67;4.10;;;;;;;29.82;47.59;101190.69;1700863;82;21024;-52
2022/07/07 08:05:37;;;;;;;4.58;4.17;;;;;;;29.84;47.57;101195.45;1696902;84;21047;-50
2022/07/07 08:08:05;;;;;;;4.17;3.85;;;;;;;29.88;47.43;101188.80;1695143;82;21011;-53
2022/07/07 08:10:33;;;;;;;4.53;4.12;;;;;;;29.95;47.38;101187.20;1697745;82;20995;-50
2022/07/07 08:13:01;;;;;;;6.80;4.15;;;;;;;30.02;47.19;101192.34;1691742;83;21093;-49
2022/07/07 08:15:27;;;;;;;4.22;3.92;;;;;;;30.07;46.71;101199.43;1697941;82;20999;-52
2022/07/07 08:17:54;;;;;;;5.00;4.42;;;;;;;30.09;46.75;101199.31;1697699;82;21492;-49
2022/07/07 08:20:22;;;;;;;9.78;4.42;;;;;;;30.13;46.90;101200.18;1698217;82;21066;-48
2022/07/07 08:22:49;;;;;;;4.53;4.12;;;;;;;30.16;46.79;101195.87;1697856;82;21067;-49
2022/07/07 08:25:16;;;;;;;4.37;4.08;;;;;;;30.20;46.66;101198.61;1694404;84;21050;-48
2022/07/07 08:27:43;;;;;;;4.58;4.25;;;;;;;30.25;46.56;101197.64;1700515;82;21027;-51
2022/07/07 08:30:11;;;;;;;5.50;4.37;;;;;;;30.32;45.81;101194.76;1698461;82;21007;-49
2022/07/07 08:32:39;;;;;;;4.15;3.83;;;;;;;30.39;45.72;101203.92;1697299;82;21088;-48
2022/07/07 08:35:09;;;;;;;11.48;4.60;;;;;;;30.47;46.17;101201.33;1697839;82;21038;-49
2022/07/07 08:37:35;;;;;;;11.12;4.40;;;;;;;30.53;46.14;101200.72;1698072;82;21590;-53
2022/07/07 08:40:04;;;;;;;4.42;4.03;;;;;;;30.58;44.84;101203.45;1693051;84;21051;-52
2022/07/07 08:42:31;;;;;;;3.92;3.62;;;;;;;30.61;44.84;101201.30;1696838;82;21524;-49
2022/07/07 08:44:58;;;;;;;12.90;4.30;;;;;;;30.65;45.06;101200.00;1697785;82;21047;-50
2022/07/07 08:47:25;;;;;;;7.67;4.15;;;;;;;30.68;45.36;101202.89;1698481;82;21043;-50
2022/07/07 08:49:52;;;;;;;5.65;4.12;;;;;;;30.70;45.15;101207.61;1697197;82;21083;-48
2022/07/07 08:52:19;;;;;;;4.33;3.33;;;;;;;30.71;45.17;101201.26;1701257;82;21039;-48
2022/07/07 08:54:46;;;;;;;14.20;4.65;;;;;;;30.74;44.62;101206.31;1701209;82;21031;-51
2022/07/07 08:57:13;;;;;;;17.70;4.40;;;;;;;30.74;44.74;101204.48;1704757;83;21347;-50
2022/07/07 08:59:40;;;;;;;9.38;3.67;;;;;;;30.78;44.75;101210.37;1708494;83;20999;-48
2022/07/07 09:02:08;;;;;;;5.10;3.33;;;;;;;30.79;44.74;101208.05;1707240;83;21014;-49
2022/07/07 09:04:35;;;;;;;5.90;4.12;;;;;;;30.81;44.97;101214.13;1709987;83;21046;-50
2022/07/07 09:07:05;;;;;;;10.35;4.22;;;;;;;30.84;44.87;101207.94;1709608;83;21492;-51
2022/07/07 09:09:44;;;;;;;3.72;3.42;;;;;;;30.85;44.87;101206.13;1707527;83;21015;-51
2022/07/07 09:12:14;;;;;;;;;;;;;;;30.83;44.49;101208.09;1700669;83;20995;-50
2022/07/07 09:14:50;;;;;;;4.55;3.33;;;;;;;30.84;44.73;101207.08;1707504;83;20107;-50
2022/07/07 09:17:27;;;;;;;4.12;3.60;;;;;;;30.83;44.68;101206.75;1712768;83;20997;-50
2022/07/07 09:20:14;;;;;;;6.65;3.47;;;;;;;30.84;45.14;101201.70;1711741;83;21010;-50
2022/07/07 09:22:52;;;;;;;3.72;2.92;;;;;;;30.88;44.97;101200.44;1714433;83;21025;-48
2022/07/07 09:25:25;;;;;;;3.87;2.90;;;;;;;30.95;45.18;101202.87;1714308;83;20986;-49
2022/07/07 09:28:06;;;;;;;4.00;3.12;;;;;;;31.06;44.58;101199.93;1714218;83;21009;-50
2022/07/07 09:30:40;;;;;;;4.47;2.65;;;;;;;31.19;44.69;101203.08;1702308;83;21502;-50
2022/07/07 09:33:11;;;;;;;6.87;3.15;;;;;;;31.32;44.20;101196.81;1710943;83;21002;-52
2022/07/07 09:38:28;;;;;;;7.80;3.10;;;;;;;31.55;43.52;101198.01;1714261;83;21021;-52
2022/07/07 09:41:10;;;;;;;7.30;3.22;;;;;;;31.63;43.29;101198.09;1710068;83;21124;-49
2022/07/07 09:43:48;;;;;;;9.53;3.92;;;;;;;31.70;43.04;101192.41;1711704;83;21034;-50
2022/07/07 09:46:24;;;;;;;10.00;3.10;;;;;;;31.77;42.89;101197.50;1709553;83;21042;-53
2022/07/07 09:48:56;;;;;;;4.47;3.02;;;;;;;31.83;42.51;101194.67;1717674;83;21021;-50
2022/07/07 09:51:27;;;;;;;51.30;6.00;;;;;;;31.87;42.22;101192.85;1693866;84;21100;-50
2022/07/07 09:54:14;;;;;;;28.32;4.00;;;;;;;31.93;41.96;101196.78;1673945;84;21035;-50
2022/07/07 09:56:42;;;;;;;30.25;4.92;;;;;;;32.00;41.65;101195.14;1687866;84;21026;-54
2022/07/07 09:59:21;;;;;;;6.12;2.95;;;;;;;32.08;41.78;101192.48;1712813;82;21061;-51
2022/07/07 10:01:48;;;;;;;18.80;3.67;;;;;;;32.12;41.82;101188.96;1696397;83;21533;-50
2022/07/07 10:04:19;;;;;;;17.07;3.33;;;;;;;32.13;41.12;101182.59;1712851;82;21017;-49
2022/07/07 10:06:46;;;;;;;4.00;2.33;;;;;;;32.15;41.21;101188.66;1714740;82;21029;-52
2022/07/07 10:09:20;;;;;;;17.77;3.67;;;;;;;32.16;41.30;101191.67;1712716;82;21069;-53
2022/07/07 10:11:50;;;;;;;29.75;4.62;;;;;;;32.15;41.04;101184.61;1714585;82;21038;-51
2022/07/07 10:14:34;;;;;;;11.75;3.33;;;;;;;32.14;40.74;101188.30;1715023;83;21497;-48
2022/07/07 10:17:01;;;;;;;20.82;4.40;;;;;;;32.12;40.58;101193.00;1705010;82;21037;-49
2022/07/07 10:19:28;;;;;;;7.83;2.87;;;;;;;32.07;40.51;101188.94;1713808;82;21566;-52
2022/07/07 10:21:57;;;;;;;9.68;3.40;;;;;;;32.06;40.99;101189.11;1700604;83;21024;-48
2022/07/07 10:24:29;;;;;;;9.78;3.10;;;;;;;32.04;40.97;101187.94;1716008;82;21017;-50
2022/07/07 10:26:58;;;;;;;42.80;5.35;;;;;;;32.05;40.97;101185.57;1699490;83;21034;-52
2022/07/07 10:29:45;;;;;;;17.30;3.75;;;;;;;32.03;40.60;101186.73;1713564;82;21021;-49
2022/07/07 10:32:18;;;;;;;12.18;4.33;;;;;;;31.99;40.34;101190.25;1703876;83;20986;-50
2022/07/07 10:34:53;;;;;;;21.23;4.53;;;;;;;31.96;40.61;101189.22;1713361;82;21005;-53
2022/07/07 10:37:21;;;;;;;11.28;4.97;;;;;;;31.93;40.58;101186.01;1713914;82;21076;-50
2022/07/07 10:39:50;;;;;;;16.87;4.60;;;;;;;31.88;40.30;101186.45;1714957;83;21033;-51
2022/07/07 10:42:25;;;;;;;21.70;6.45;;;;;;;31.84;40.32;101189.13;1700630;83;20998;-51
2022/07/07 10:44:53;;;;;;;25.37;5.25;;;;;;;31.80;40.59;101187.75;1716088;82;21554;-54
2022/07/07 10:47:26;;;;;;;18.75;5.28;;;;;;;31.76;40.92;101185.04;1719810;82;21043;-55
2022/07/07 10:49:55;;;;;;;19.37;4.50;;;;;;;31.75;41.23;101182.52;1735506;81;21471;-52
2022/07/07 10:52:27;;;;;;;5.75;3.25;;;;;;;31.78;41.28;101180.34;1734062;81;21535;-50
2022/07/07 10:55:00;;;;;;;12.95;3.95;;;;;;;31.83;41.28;101179.87;1733163;81;21483;-52
2022/07/07 10:57:47;;;;;;;57.30;6.53;;;;;;;31.90;41.49;101181.75;1688455;83;21083;-49
2022/07/07 11:00:21;;;;;;;15.43;3.60;;;;;;;31.96;41.58;101175.75;1656668;86;21503;-51
2022/07/07 11:02:55;;;;;;;22.10;4.35;;;;;;;32.05;41.55;101176.15;1719501;81;21554;-52
2022/07/07 11:05:28;;;;;;;13.22;3.50;;;;;;;32.14;41.54;101178.88;1720373;81;21070;-52
2022/07/07 11:08:07;;;;;;;6.78;2.67;;;;;;;32.21;41.56;101178.58;1723118;81;21531;-50
2022/07/07 11:10:51;;;;;;;15.83;4.00;;;;;;;32.28;41.24;101172.86;1679439;84;21058;-51
2022/07/07 11:13:25;;;;;;;13.35;4.12;;;;;;;32.34;41.13;101177.10;1679418;84;21058;-51
2022/07/07 11:15:54;;;;;;;10.53;3.67;;;;;;;32.42;40.11;101177.66;1676088;85;21128;-49
2022/07/07 11:18:21;;;;;;;38.00;5.30;;;;;;;32.49;40.85;101182.73;1679641;84;21063;-54
2022/07/07 11:21:00;;;;;;;10.90;3.52;;;;;;;32.55;40.98;101175.34;1679110;84;21046;-47
2022/07/07 11:23:47;;;;;;;6.17;3.17;;;;;;;32.61;41.01;101174.19;1679525;84;21035;-49
2022/07/07 11:26:20;;;;;;;17.75;3.65;;;;;;;32.68;40.74;101177.92;1679370;84;21532;-54
2022/07/07 11:28:47;;;;;;;17.45;4.55;;;;;;;32.73;40.86;101178.25;1623082;87;21029;-50
2022/07/07 11:31:14;;;;;;;6.35;3.10;;;;;;;32.79;41.25;101168.64;1622929;87;21052;-50
2022/07/07 11:33:41;;;;;;;5.97;2.90;;;;;;;32.86;40.78;101173.72;1622825;87;21015;-55